sensor_id;sensor_type;location;lat;lon;timestamp;P1;durP1;ratioP1;P2;durP2;ratioP2
8632;SDS011;4354;49.832;10.746;2023-12-04T00:00:17;41.90;;;23.40;;
8632;SDS011;4354;49.832;10.746;2023-12-04T00:02:44;36.90;;;22.33;;
8632;SDS011;4354;49.832;10.746;2023-12-04T00:05:10;38.80;;;22.20;;
8632;SDS011;4354;49.832;10.746;2023-12-04T00:07:37;40.10;;;23.03;;
8632;SDS011;4354;49.832;10.746;2023-12-04T00:10:04;35.00;;;22.00;;
8632;SDS011;4354;49.832;10.746;2023-12-04T00:12:31;39.43;;;22.47;;
8632;SDS011;4354;49.832;10.746;2023-12-04T00:14:59;39.40;;;21.47;;
8632;SDS011;4354;49.832;10.746;2023-12-04T00:17:25;38.77;;;21.50;;
8632;SDS011;4354;49.832;10.746;2023-12-04T00:19:52;38.50;;;22.67;;
8632;SDS011;4354;49.832;10.746;2023-12-04T00:22:19;40.23;;;24.23;;
8632;SDS011;4354;49.832;10.746;2023-12-04T00:24:46;40.33;;;24.70;;
8632;SDS011;4354;49.832;10.746;2023-12-04T00:27:13;39.60;;;24.10;;
8632;SDS011;4354;49.832;10.746;2023-12-04T00:29:39;43.83;;;24.77;;
8632;SDS011;4354;49.832;10.746;2023-12-04T00:32:06;40.43;;;23.93;;
8632;SDS011;4354;49.832;10.746;2023-12-04T00:34:33;38.67;;;23.50;;
8632;SDS011;4354;49.832;10.746;2023-12-04T00:37:00;39.67;;;23.40;;
8632;SDS011;4354;49.832;10.746;2023-12-04T00:39:27;45.23;;;25.07;;
8632;SDS011;4354;49.832;10.746;2023-12-04T00:41:53;40.97;;;23.83;;
8632;SDS011;4354;49.832;10.746;2023-12-04T00:44:21;40.90;;;24.10;;
8632;SDS011;4354;49.832;10.746;2023-12-04T00:46:48;42.17;;;24.10;;
8632;SDS011;4354;49.832;10.746;2023-12-04T00:49:14;40.30;;;23.50;;
8632;SDS011;4354;49.832;10.746;2023-12-04T00:51:41;40.43;;;23.30;;
8632;SDS011;4354;49.832;10.746;2023-12-04T00:54:08;40.10;;;23.60;;
8632;SDS011;4354;49.832;10.746;2023-12-04T00:56:37;38.80;;;22.90;;
8632;SDS011;4354;49.832;10.746;2023-12-04T00:59:05;38.53;;;21.20;;
8632;SDS011;4354;49.832;10.746;2023-12-04T01:01:36;42.37;;;22.77;;
8632;SDS011;4354;49.832;10.746;2023-12-04T01:04:03;44.03;;;23.40;;
8632;SDS011;4354;49.832;10.746;2023-12-04T01:06:30;40.47;;;22.20;;
8632;SDS011;4354;49.832;10.746;2023-12-04T01:08:57;37.60;;;21.37;;
8632;SDS011;4354;49.832;10.746;2023-12-04T01:11:23;40.43;;;22.40;;
8632;SDS011;4354;49.832;10.746;2023-12-04T01:13:50;40.77;;;23.13;;
8632;SDS011;4354;49.832;10.746;2023-12-04T01:16:17;38.63;;;22.13;;
8632;SDS011;4354;49.832;10.746;2023-12-04T01:18:44;38.37;;;22.00;;
8632;SDS011;4354;49.832;10.746;2023-12-04T01:21:11;38.07;;;21.83;;
8632;SDS011;4354;49.832;10.746;2023-12-04T01:23:37;39.10;;;22.80;;
8632;SDS011;4354;49.832;10.746;2023-12-04T01:26:04;34.27;;;20.37;;
8632;SDS011;4354;49.832;10.746;2023-12-04T01:28:31;40.70;;;21.37;;
8632;SDS011;4354;49.832;10.746;2023-12-04T01:30:58;37.23;;;22.37;;
8632;SDS011;4354;49.832;10.746;2023-12-04T01:33:25;39.03;;;22.70;;
8632;SDS011;4354;49.832;10.746;2023-12-04T01:35:52;38.40;;;22.23;;
8632;SDS011;4354;49.832;10.746;2023-12-04T01:38:19;31.70;;;19.77;;
8632;SDS011;4354;49.832;10.746;2023-12-04T01:40:46;35.97;;;21.00;;
8632;SDS011;4354;49.832;10.746;2023-12-04T01:43:13;35.17;;;20.57;;
8632;SDS011;4354;49.832;10.746;2023-12-04T01:45:41;37.13;;;20.90;;
8632;SDS011;4354;49.832;10.746;2023-12-04T01:48:08;35.33;;;20.70;;
8632;SDS011;4354;49.832;10.746;2023-12-04T01:50:35;34.50;;;20.43;;
8632;SDS011;4354;49.832;10.746;2023-12-04T01:53:03;32.53;;;19.53;;
8632;SDS011;4354;49.832;10.746;2023-12-04T01:55:30;36.07;;;20.70;;
8632;SDS011;4354;49.832;10.746;2023-12-04T01:57:59;32.50;;;20.43;;
8632;SDS011;4354;49.832;10.746;2023-12-04T02:00:27;32.43;;;20.13;;
8632;SDS011;4354;49.832;10.746;2023-12-04T02:02:55;33.47;;;19.60;;
8632;SDS011;4354;49.832;10.746;2023-12-04T02:05:22;34.13;;;19.93;;
8632;SDS011;4354;49.832;10.746;2023-12-04T02:07:50;35.13;;;20.47;;
8632;SDS011;4354;49.832;10.746;2023-12-04T02:10:19;34.17;;;20.07;;
8632;SDS011;4354;49.832;10.746;2023-12-04T02:12:45;36.63;;;20.10;;
8632;SDS011;4354;49.832;10.746;2023-12-04T02:15:12;35.60;;;20.43;;
8632;SDS011;4354;49.832;10.746;2023-12-04T02:17:39;32.53;;;19.07;;
8632;SDS011;4354;49.832;10.746;2023-12-04T02:20:09;34.03;;;20.20;;
8632;SDS011;4354;49.832;10.746;2023-12-04T02:22:37;33.60;;;20.30;;
8632;SDS011;4354;49.832;10.746;2023-12-04T02:25:04;28.57;;;18.40;;
8632;SDS011;4354;49.832;10.746;2023-12-04T02:27:40;35.80;;;20.00;;
8632;SDS011;4354;49.832;10.746;2023-12-04T02:30:20;31.57;;;19.63;;
8632;SDS011;4354;49.832;10.746;2023-12-04T02:32:49;33.03;;;19.97;;
8632;SDS011;4354;49.832;10.746;2023-12-04T02:35:21;32.93;;;20.00;;
8632;SDS011;4354;49.832;10.746;2023-12-04T02:37:50;36.63;;;20.80;;
8632;SDS011;4354;49.832;10.746;2023-12-04T02:40:18;33.53;;;19.50;;
8632;SDS011;4354;49.832;10.746;2023-12-04T02:42:45;35.67;;;20.00;;
8632;SDS011;4354;49.832;10.746;2023-12-04T02:45:12;32.60;;;18.67;;
8632;SDS011;4354;49.832;10.746;2023-12-04T02:47:39;33.00;;;18.93;;
8632;SDS011;4354;49.832;10.746;2023-12-04T02:50:06;29.33;;;17.60;;
8632;SDS011;4354;49.832;10.746;2023-12-04T02:52:33;34.50;;;19.03;;
8632;SDS011;4354;49.832;10.746;2023-12-04T02:55:00;34.63;;;19.03;;
8632;SDS011;4354;49.832;10.746;2023-12-04T02:57:27;30.67;;;18.20;;
8632;SDS011;4354;49.832;10.746;2023-12-04T02:59:53;30.47;;;19.03;;
8632;SDS011;4354;49.832;10.746;2023-12-04T03:02:20;33.27;;;19.57;;
8632;SDS011;4354;49.832;10.746;2023-12-04T03:04:47;29.83;;;18.93;;
8632;SDS011;4354;49.832;10.746;2023-12-04T03:07:14;33.57;;;20.03;;
8632;SDS011;4354;49.832;10.746;2023-12-04T03:09:40;32.13;;;19.93;;
8632;SDS011;4354;49.832;10.746;2023-12-04T03:12:15;32.23;;;19.13;;
8632;SDS011;4354;49.832;10.746;2023-12-04T03:14:42;32.30;;;19.53;;
8632;SDS011;4354;49.832;10.746;2023-12-04T03:17:09;34.07;;;20.27;;
8632;SDS011;4354;49.832;10.746;2023-12-04T03:19:36;36.33;;;19.93;;
8632;SDS011;4354;49.832;10.746;2023-12-04T03:22:03;34.13;;;19.93;;
8632;SDS011;4354;49.832;10.746;2023-12-04T03:24:30;34.27;;;20.27;;
8632;SDS011;4354;49.832;10.746;2023-12-04T03:26:56;32.33;;;19.60;;
8632;SDS011;4354;49.832;10.746;2023-12-04T03:29:23;33.87;;;19.07;;
8632;SDS011;4354;49.832;10.746;2023-12-04T03:31:50;35.63;;;20.20;;
8632;SDS011;4354;49.832;10.746;2023-12-04T03:34:17;32.87;;;19.90;;
8632;SDS011;4354;49.832;10.746;2023-12-04T03:36:44;31.83;;;18.60;;
8632;SDS011;4354;49.832;10.746;2023-12-04T03:39:11;32.93;;;18.70;;
8632;SDS011;4354;49.832;10.746;2023-12-04T03:41:38;32.57;;;19.20;;
8632;SDS011;4354;49.832;10.746;2023-12-04T03:44:04;33.67;;;19.40;;
8632;SDS011;4354;49.832;10.746;2023-12-04T03:46:31;32.93;;;19.10;;
8632;SDS011;4354;49.832;10.746;2023-12-04T03:48:58;37.40;;;20.77;;
8632;SDS011;4354;49.832;10.746;2023-12-04T03:51:25;36.60;;;19.60;;
8632;SDS011;4354;49.832;10.746;2023-12-04T03:53:53;38.23;;;20.23;;
8632;SDS011;4354;49.832;10.746;2023-12-04T03:56:19;34.60;;;18.97;;
8632;SDS011;4354;49.832;10.746;2023-12-04T03:58:46;34.20;;;19.23;;
8632;SDS011;4354;49.832;10.746;2023-12-04T04:01:13;32.30;;;19.37;;
8632;SDS011;4354;49.832;10.746;2023-12-04T04:03:40;31.60;;;17.97;;
8632;SDS011;4354;49.832;10.746;2023-12-04T04:06:11;29.77;;;18.00;;
8632;SDS011;4354;49.832;10.746;2023-12-04T04:08:38;31.07;;;18.63;;
8632;SDS011;4354;49.832;10.746;2023-12-04T04:11:04;29.00;;;17.60;;
8632;SDS011;4354;49.832;10.746;2023-12-04T04:13:31;28.83;;;17.37;;
8632;SDS011;4354;49.832;10.746;2023-12-04T04:15:58;31.00;;;18.93;;
8632;SDS011;4354;49.832;10.746;2023-12-04T04:18:25;29.57;;;18.57;;
8632;SDS011;4354;49.832;10.746;2023-12-04T04:20:52;31.50;;;19.43;;
8632;SDS011;4354;49.832;10.746;2023-12-04T04:23:19;28.23;;;18.70;;
8632;SDS011;4354;49.832;10.746;2023-12-04T04:25:45;31.60;;;18.23;;
8632;SDS011;4354;49.832;10.746;2023-12-04T04:28:12;29.77;;;18.63;;
8632;SDS011;4354;49.832;10.746;2023-12-04T04:30:39;29.77;;;18.07;;
8632;SDS011;4354;49.832;10.746;2023-12-04T04:33:06;29.57;;;16.93;;
8632;SDS011;4354;49.832;10.746;2023-12-04T04:35:33;28.73;;;17.43;;
8632;SDS011;4354;49.832;10.746;2023-12-04T04:38:00;27.90;;;17.00;;
8632;SDS011;4354;49.832;10.746;2023-12-04T04:40:26;29.53;;;16.97;;
8632;SDS011;4354;49.832;10.746;2023-12-04T04:42:53;28.03;;;17.10;;
8632;SDS011;4354;49.832;10.746;2023-12-04T04:45:20;29.70;;;18.00;;
8632;SDS011;4354;49.832;10.746;2023-12-04T04:47:47;35.57;;;17.80;;
8632;SDS011;4354;49.832;10.746;2023-12-04T04:50:14;34.80;;;19.27;;
8632;SDS011;4354;49.832;10.746;2023-12-04T04:52:41;31.27;;;19.03;;
8632;SDS011;4354;49.832;10.746;2023-12-04T04:55:07;36.13;;;19.20;;
8632;SDS011;4354;49.832;10.746;2023-12-04T04:57:34;35.43;;;21.10;;
8632;SDS011;4354;49.832;10.746;2023-12-04T05:00:01;41.60;;;20.40;;
8632;SDS011;4354;49.832;10.746;2023-12-04T05:02:28;28.43;;;17.93;;
8632;SDS011;4354;49.832;10.746;2023-12-04T05:04:55;30.47;;;18.27;;
8632;SDS011;4354;49.832;10.746;2023-12-04T05:07:22;26.50;;;17.23;;
8632;SDS011;4354;49.832;10.746;2023-12-04T05:09:49;29.47;;;17.47;;
8632;SDS011;4354;49.832;10.746;2023-12-04T05:12:15;25.47;;;17.03;;
8632;SDS011;4354;49.832;10.746;2023-12-04T05:14:42;28.50;;;16.67;;
8632;SDS011;4354;49.832;10.746;2023-12-04T05:17:09;24.90;;;17.10;;
8632;SDS011;4354;49.832;10.746;2023-12-04T05:19:35;26.20;;;16.33;;
8632;SDS011;4354;49.832;10.746;2023-12-04T05:22:02;28.50;;;18.07;;
8632;SDS011;4354;49.832;10.746;2023-12-04T05:24:29;27.70;;;16.87;;
8632;SDS011;4354;49.832;10.746;2023-12-04T05:26:56;29.63;;;17.50;;
8632;SDS011;4354;49.832;10.746;2023-12-04T05:29:23;29.70;;;17.47;;
8632;SDS011;4354;49.832;10.746;2023-12-04T05:31:50;27.70;;;17.87;;
8632;SDS011;4354;49.832;10.746;2023-12-04T05:34:16;29.33;;;17.73;;
8632;SDS011;4354;49.832;10.746;2023-12-04T05:36:43;27.90;;;17.57;;
8632;SDS011;4354;49.832;10.746;2023-12-04T05:39:10;28.67;;;18.73;;
8632;SDS011;4354;49.832;10.746;2023-12-04T05:41:37;31.90;;;19.57;;
8632;SDS011;4354;49.832;10.746;2023-12-04T05:44:04;34.90;;;21.67;;
8632;SDS011;4354;49.832;10.746;2023-12-04T05:46:31;33.10;;;22.93;;
8632;SDS011;4354;49.832;10.746;2023-12-04T05:48:58;34.93;;;20.23;;
8632;SDS011;4354;49.832;10.746;2023-12-04T05:51:25;34.03;;;20.23;;
8632;SDS011;4354;49.832;10.746;2023-12-04T05:53:53;28.77;;;18.77;;
8632;SDS011;4354;49.832;10.746;2023-12-04T05:56:19;29.57;;;18.83;;
8632;SDS011;4354;49.832;10.746;2023-12-04T05:58:46;31.80;;;18.37;;
8632;SDS011;4354;49.832;10.746;2023-12-04T06:01:14;28.73;;;17.87;;
8632;SDS011;4354;49.832;10.746;2023-12-04T06:03:41;28.27;;;17.90;;
8632;SDS011;4354;49.832;10.746;2023-12-04T06:06:08;32.17;;;18.03;;
8632;SDS011;4354;49.832;10.746;2023-12-04T06:08:35;29.10;;;17.17;;
8632;SDS011;4354;49.832;10.746;2023-12-04T06:11:02;30.33;;;18.70;;
8632;SDS011;4354;49.832;10.746;2023-12-04T06:13:29;32.30;;;19.03;;
8632;SDS011;4354;49.832;10.746;2023-12-04T06:15:56;28.73;;;17.67;;
8632;SDS011;4354;49.832;10.746;2023-12-04T06:18:22;30.30;;;17.97;;
8632;SDS011;4354;49.832;10.746;2023-12-04T06:20:53;29.67;;;18.60;;
8632;SDS011;4354;49.832;10.746;2023-12-04T06:23:20;28.93;;;17.80;;
8632;SDS011;4354;49.832;10.746;2023-12-04T06:25:47;28.83;;;17.57;;
8632;SDS011;4354;49.832;10.746;2023-12-04T06:28:14;25.97;;;15.97;;
8632;SDS011;4354;49.832;10.746;2023-12-04T06:30:41;25.13;;;16.60;;
8632;SDS011;4354;49.832;10.746;2023-12-04T06:33:08;26.60;;;17.13;;
8632;SDS011;4354;49.832;10.746;2023-12-04T06:35:35;26.27;;;16.20;;
8632;SDS011;4354;49.832;10.746;2023-12-04T06:38:06;26.73;;;16.77;;
8632;SDS011;4354;49.832;10.746;2023-12-04T06:40:34;28.93;;;18.47;;
8632;SDS011;4354;49.832;10.746;2023-12-04T06:43:01;27.40;;;17.17;;
8632;SDS011;4354;49.832;10.746;2023-12-04T06:45:28;26.70;;;17.07;;
8632;SDS011;4354;49.832;10.746;2023-12-04T06:47:55;31.47;;;18.20;;
8632;SDS011;4354;49.832;10.746;2023-12-04T06:50:23;29.47;;;17.97;;
8632;SDS011;4354;49.832;10.746;2023-12-04T06:52:50;27.90;;;17.17;;
8632;SDS011;4354;49.832;10.746;2023-12-04T06:55:16;27.80;;;16.57;;
8632;SDS011;4354;49.832;10.746;2023-12-04T06:57:43;28.47;;;17.13;;
8632;SDS011;4354;49.832;10.746;2023-12-04T07:00:10;28.97;;;17.00;;
8632;SDS011;4354;49.832;10.746;2023-12-04T07:02:48;28.27;;;16.57;;
8632;SDS011;4354;49.832;10.746;2023-12-04T07:05:16;30.47;;;17.73;;
8632;SDS011;4354;49.832;10.746;2023-12-04T07:07:44;25.87;;;17.23;;
8632;SDS011;4354;49.832;10.746;2023-12-04T07:10:11;28.60;;;18.47;;
8632;SDS011;4354;49.832;10.746;2023-12-04T07:12:42;28.83;;;18.53;;
8632;SDS011;4354;49.832;10.746;2023-12-04T07:15:09;26.53;;;17.33;;
8632;SDS011;4354;49.832;10.746;2023-12-04T07:17:37;29.43;;;17.63;;
8632;SDS011;4354;49.832;10.746;2023-12-04T07:20:06;32.10;;;20.03;;
8632;SDS011;4354;49.832;10.746;2023-12-04T07:22:33;31.80;;;19.20;;
8632;SDS011;4354;49.832;10.746;2023-12-04T07:25:04;29.70;;;18.33;;
8632;SDS011;4354;49.832;10.746;2023-12-04T07:27:33;26.70;;;16.93;;
8632;SDS011;4354;49.832;10.746;2023-12-04T07:30:01;31.37;;;19.57;;
8632;SDS011;4354;49.832;10.746;2023-12-04T07:32:29;29.50;;;18.67;;
8632;SDS011;4354;49.832;10.746;2023-12-04T07:34:56;27.37;;;16.83;;
8632;SDS011;4354;49.832;10.746;2023-12-04T07:37:23;28.10;;;19.10;;
8632;SDS011;4354;49.832;10.746;2023-12-04T07:39:49;27.00;;;18.27;;
8632;SDS011;4354;49.832;10.746;2023-12-04T07:42:16;29.63;;;19.77;;
8632;SDS011;4354;49.832;10.746;2023-12-04T07:44:43;29.03;;;18.87;;
8632;SDS011;4354;49.832;10.746;2023-12-04T07:47:10;30.40;;;19.57;;
8632;SDS011;4354;49.832;10.746;2023-12-04T07:49:37;28.40;;;17.43;;
8632;SDS011;4354;49.832;10.746;2023-12-04T07:52:04;28.47;;;18.53;;
8632;SDS011;4354;49.832;10.746;2023-12-04T07:54:31;25.07;;;17.07;;
8632;SDS011;4354;49.832;10.746;2023-12-04T07:56:59;22.73;;;16.90;;
8632;SDS011;4354;49.832;10.746;2023-12-04T07:59:26;25.87;;;17.50;;
8632;SDS011;4354;49.832;10.746;2023-12-04T08:01:53;27.57;;;18.77;;
8632;SDS011;4354;49.832;10.746;2023-12-04T08:04:19;25.27;;;17.17;;
8632;SDS011;4354;49.832;10.746;2023-12-04T08:06:46;24.27;;;16.80;;
8632;SDS011;4354;49.832;10.746;2023-12-04T08:09:13;23.57;;;16.37;;
8632;SDS011;4354;49.832;10.746;2023-12-04T08:11:40;23.63;;;17.07;;
8632;SDS011;4354;49.832;10.746;2023-12-04T08:14:07;23.27;;;16.43;;
8632;SDS011;4354;49.832;10.746;2023-12-04T08:16:34;21.77;;;15.23;;
8632;SDS011;4354;49.832;10.746;2023-12-04T08:19:01;22.90;;;14.97;;
8632;SDS011;4354;49.832;10.746;2023-12-04T08:21:28;17.37;;;13.53;;
8632;SDS011;4354;49.832;10.746;2023-12-04T08:23:55;18.30;;;13.87;;
8632;SDS011;4354;49.832;10.746;2023-12-04T08:26:22;19.63;;;14.63;;
8632;SDS011;4354;49.832;10.746;2023-12-04T08:28:51;18.73;;;15.40;;
8632;SDS011;4354;49.832;10.746;2023-12-04T08:31:18;18.00;;;14.20;;
8632;SDS011;4354;49.832;10.746;2023-12-04T08:33:45;17.93;;;13.97;;
8632;SDS011;4354;49.832;10.746;2023-12-04T08:36:12;19.33;;;13.73;;
8632;SDS011;4354;49.832;10.746;2023-12-04T08:38:39;19.47;;;14.90;;
8632;SDS011;4354;49.832;10.746;2023-12-04T08:41:06;19.87;;;15.37;;
8632;SDS011;4354;49.832;10.746;2023-12-04T08:43:33;21.63;;;14.77;;
8632;SDS011;4354;49.832;10.746;2023-12-04T08:46:00;19.50;;;14.10;;
8632;SDS011;4354;49.832;10.746;2023-12-04T08:48:27;20.20;;;15.47;;
8632;SDS011;4354;49.832;10.746;2023-12-04T08:50:54;22.37;;;16.40;;
8632;SDS011;4354;49.832;10.746;2023-12-04T08:53:21;22.27;;;15.87;;
8632;SDS011;4354;49.832;10.746;2023-12-04T08:55:47;21.60;;;15.63;;
8632;SDS011;4354;49.832;10.746;2023-12-04T08:58:14;31.47;;;16.60;;
8632;SDS011;4354;49.832;10.746;2023-12-04T09:00:41;39.13;;;17.60;;
8632;SDS011;4354;49.832;10.746;2023-12-04T09:03:10;30.30;;;16.37;;
8632;SDS011;4354;49.832;10.746;2023-12-04T09:05:47;29.00;;;16.47;;
8632;SDS011;4354;49.832;10.746;2023-12-04T09:08:17;24.90;;;14.73;;
8632;SDS011;4354;49.832;10.746;2023-12-04T09:11:02;25.53;;;16.50;;
8632;SDS011;4354;49.832;10.746;2023-12-04T09:13:35;23.53;;;15.20;;
8632;SDS011;4354;49.832;10.746;2023-12-04T09:16:01;26.43;;;15.67;;
8632;SDS011;4354;49.832;10.746;2023-12-04T09:18:28;27.00;;;15.57;;
8632;SDS011;4354;49.832;10.746;2023-12-04T09:20:55;24.63;;;16.00;;
8632;SDS011;4354;49.832;10.746;2023-12-04T09:23:22;27.20;;;16.57;;
8632;SDS011;4354;49.832;10.746;2023-12-04T09:25:51;22.17;;;14.20;;
8632;SDS011;4354;49.832;10.746;2023-12-04T09:28:18;21.67;;;14.37;;
8632;SDS011;4354;49.832;10.746;2023-12-04T09:30:45;23.20;;;14.10;;
8632;SDS011;4354;49.832;10.746;2023-12-04T09:33:12;18.50;;;14.37;;
8632;SDS011;4354;49.832;10.746;2023-12-04T09:35:39;24.50;;;15.60;;
8632;SDS011;4354;49.832;10.746;2023-12-04T09:38:05;21.77;;;14.57;;
8632;SDS011;4354;49.832;10.746;2023-12-04T09:40:32;25.93;;;15.70;;
8632;SDS011;4354;49.832;10.746;2023-12-04T09:43:00;22.77;;;14.57;;
8632;SDS011;4354;49.832;10.746;2023-12-04T09:45:26;19.50;;;14.53;;
8632;SDS011;4354;49.832;10.746;2023-12-04T09:47:58;23.60;;;15.77;;
8632;SDS011;4354;49.832;10.746;2023-12-04T09:50:25;22.83;;;16.53;;
8632;SDS011;4354;49.832;10.746;2023-12-04T09:52:53;19.13;;;14.97;;
8632;SDS011;4354;49.832;10.746;2023-12-04T09:55:25;21.13;;;15.30;;
8632;SDS011;4354;49.832;10.746;2023-12-04T09:57:52;18.13;;;15.37;;
8632;SDS011;4354;49.832;10.746;2023-12-04T10:00:20;18.60;;;15.03;;
8632;SDS011;4354;49.832;10.746;2023-12-04T10:02:48;19.37;;;14.53;;
8632;SDS011;4354;49.832;10.746;2023-12-04T10:05:15;24.73;;;19.10;;
8632;SDS011;4354;49.832;10.746;2023-12-04T10:07:42;22.37;;;16.63;;
8632;SDS011;4354;49.832;10.746;2023-12-04T10:10:09;29.27;;;26.07;;
8632;SDS011;4354;49.832;10.746;2023-12-04T10:12:36;38.03;;;34.03;;
8632;SDS011;4354;49.832;10.746;2023-12-04T10:15:10;25.60;;;22.77;;
8632;SDS011;4354;49.832;10.746;2023-12-04T10:17:41;21.47;;;17.17;;
8632;SDS011;4354;49.832;10.746;2023-12-04T10:20:10;21.27;;;15.97;;
8632;SDS011;4354;49.832;10.746;2023-12-04T10:22:39;23.43;;;17.60;;
8632;SDS011;4354;49.832;10.746;2023-12-04T10:25:19;19.13;;;15.43;;
8632;SDS011;4354;49.832;10.746;2023-12-04T10:27:46;21.60;;;16.80;;
8632;SDS011;4354;49.832;10.746;2023-12-04T10:30:23;20.37;;;16.17;;
8632;SDS011;4354;49.832;10.746;2023-12-04T10:32:53;22.07;;;16.37;;
8632;SDS011;4354;49.832;10.746;2023-12-04T10:35:22;21.27;;;15.73;;
8632;SDS011;4354;49.832;10.746;2023-12-04T10:37:52;19.90;;;14.67;;
8632;SDS011;4354;49.832;10.746;2023-12-04T10:40:27;19.47;;;15.47;;
8632;SDS011;4354;49.832;10.746;2023-12-04T10:43:17;18.33;;;13.90;;
8632;SDS011;4354;49.832;10.746;2023-12-04T10:45:47;18.00;;;13.00;;
8632;SDS011;4354;49.832;10.746;2023-12-04T10:48:15;15.77;;;12.70;;
8632;SDS011;4354;49.832;10.746;2023-12-04T10:50:45;16.97;;;13.27;;
8632;SDS011;4354;49.832;10.746;2023-12-04T10:53:14;19.13;;;13.07;;
8632;SDS011;4354;49.832;10.746;2023-12-04T10:55:42;18.07;;;12.43;;
8632;SDS011;4354;49.832;10.746;2023-12-04T10:58:14;15.53;;;12.10;;
8632;SDS011;4354;49.832;10.746;2023-12-04T11:03:13;19.60;;;13.50;;
8632;SDS011;4354;49.832;10.746;2023-12-04T11:05:56;15.27;;;11.73;;
8632;SDS011;4354;49.832;10.746;2023-12-04T11:08:26;16.30;;;11.77;;
8632;SDS011;4354;49.832;10.746;2023-12-04T11:10:57;15.87;;;12.13;;
8632;SDS011;4354;49.832;10.746;2023-12-04T11:13:28;15.93;;;12.37;;
8632;SDS011;4354;49.832;10.746;2023-12-04T11:15:59;14.60;;;11.40;;
8632;SDS011;4354;49.832;10.746;2023-12-04T11:18:31;16.93;;;12.70;;
8632;SDS011;4354;49.832;10.746;2023-12-04T11:21:06;17.17;;;12.17;;
8632;SDS011;4354;49.832;10.746;2023-12-04T11:23:34;14.83;;;11.50;;
8632;SDS011;4354;49.832;10.746;2023-12-04T11:26:02;16.47;;;12.50;;
8632;SDS011;4354;49.832;10.746;2023-12-04T11:28:30;17.20;;;12.93;;
8632;SDS011;4354;49.832;10.746;2023-12-04T11:30:58;15.73;;;12.10;;
8632;SDS011;4354;49.832;10.746;2023-12-04T11:33:27;15.63;;;11.40;;
8632;SDS011;4354;49.832;10.746;2023-12-04T11:36:05;15.43;;;11.10;;
8632;SDS011;4354;49.832;10.746;2023-12-04T11:38:43;14.10;;;10.50;;
8632;SDS011;4354;49.832;10.746;2023-12-04T11:41:21;13.80;;;9.30;;
8632;SDS011;4354;49.832;10.746;2023-12-04T11:43:54;12.47;;;8.87;;
8632;SDS011;4354;49.832;10.746;2023-12-04T11:46:23;13.40;;;9.50;;
8632;SDS011;4354;49.832;10.746;2023-12-04T11:48:55;12.10;;;8.03;;
8632;SDS011;4354;49.832;10.746;2023-12-04T11:54:16;9.50;;;7.17;;
8632;SDS011;4354;49.832;10.746;2023-12-04T11:56:57;9.37;;;6.83;;
8632;SDS011;4354;49.832;10.746;2023-12-04T11:59:45;9.20;;;7.33;;
8632;SDS011;4354;49.832;10.746;2023-12-04T12:02:12;20.07;;;12.93;;
8632;SDS011;4354;49.832;10.746;2023-12-04T12:04:40;32.97;;;24.43;;
8632;SDS011;4354;49.832;10.746;2023-12-04T12:07:07;10.63;;;7.50;;
8632;SDS011;4354;49.832;10.746;2023-12-04T12:09:34;10.67;;;7.73;;
8632;SDS011;4354;49.832;10.746;2023-12-04T12:12:02;11.57;;;7.60;;
8632;SDS011;4354;49.832;10.746;2023-12-04T12:14:30;8.67;;;7.10;;
8632;SDS011;4354;49.832;10.746;2023-12-04T12:16:58;16.17;;;12.70;;
8632;SDS011;4354;49.832;10.746;2023-12-04T12:19:26;10.70;;;7.53;;
8632;SDS011;4354;49.832;10.746;2023-12-04T12:21:54;8.17;;;6.70;;
8632;SDS011;4354;49.832;10.746;2023-12-04T12:24:21;8.83;;;6.40;;
8632;SDS011;4354;49.832;10.746;2023-12-04T12:26:51;10.13;;;6.97;;
8632;SDS011;4354;49.832;10.746;2023-12-04T12:29:17;10.80;;;6.83;;
8632;SDS011;4354;49.832;10.746;2023-12-04T12:31:44;9.47;;;7.20;;
8632;SDS011;4354;49.832;10.746;2023-12-04T12:34:13;10.47;;;7.50;;
8632;SDS011;4354;49.832;10.746;2023-12-04T12:36:40;13.30;;;10.10;;
8632;SDS011;4354;49.832;10.746;2023-12-04T12:39:07;38.03;;;22.57;;
8632;SDS011;4354;49.832;10.746;2023-12-04T12:41:35;15.00;;;10.80;;
8632;SDS011;4354;49.832;10.746;2023-12-04T12:44:02;9.60;;;7.33;;
8632;SDS011;4354;49.832;10.746;2023-12-04T12:46:30;13.93;;;12.50;;
8632;SDS011;4354;49.832;10.746;2023-12-04T12:48:56;9.73;;;6.87;;
8632;SDS011;4354;49.832;10.746;2023-12-04T12:51:25;10.50;;;7.03;;
8632;SDS011;4354;49.832;10.746;2023-12-04T12:53:52;10.97;;;6.87;;
8632;SDS011;4354;49.832;10.746;2023-12-04T12:56:19;20.20;;;17.27;;
8632;SDS011;4354;49.832;10.746;2023-12-04T12:58:47;21.87;;;19.60;;
8632;SDS011;4354;49.832;10.746;2023-12-04T13:01:14;11.63;;;8.07;;
8632;SDS011;4354;49.832;10.746;2023-12-04T13:03:44;12.27;;;9.30;;
8632;SDS011;4354;49.832;10.746;2023-12-04T13:06:12;12.63;;;7.00;;
8632;SDS011;4354;49.832;10.746;2023-12-04T13:08:39;10.40;;;7.07;;
8632;SDS011;4354;49.832;10.746;2023-12-04T13:11:07;9.60;;;6.83;;
8632;SDS011;4354;49.832;10.746;2023-12-04T13:13:34;13.30;;;7.07;;
8632;SDS011;4354;49.832;10.746;2023-12-04T13:16:01;8.17;;;6.27;;
8632;SDS011;4354;49.832;10.746;2023-12-04T13:18:28;10.70;;;6.80;;
8632;SDS011;4354;49.832;10.746;2023-12-04T13:20:58;7.90;;;6.30;;
8632;SDS011;4354;49.832;10.746;2023-12-04T13:23:25;9.13;;;6.77;;
8632;SDS011;4354;49.832;10.746;2023-12-04T13:25:51;9.20;;;6.63;;
8632;SDS011;4354;49.832;10.746;2023-12-04T13:28:19;10.30;;;6.50;;
8632;SDS011;4354;49.832;10.746;2023-12-04T13:30:57;10.30;;;6.70;;
8632;SDS011;4354;49.832;10.746;2023-12-04T13:33:24;10.17;;;7.17;;
8632;SDS011;4354;49.832;10.746;2023-12-04T13:35:52;10.77;;;6.57;;
8632;SDS011;4354;49.832;10.746;2023-12-04T13:38:19;8.73;;;7.40;;
8632;SDS011;4354;49.832;10.746;2023-12-04T13:40:55;12.80;;;7.50;;
8632;SDS011;4354;49.832;10.746;2023-12-04T13:43:45;10.27;;;7.10;;
8632;SDS011;4354;49.832;10.746;2023-12-04T13:46:18;11.43;;;7.07;;
8632;SDS011;4354;49.832;10.746;2023-12-04T13:48:46;11.63;;;6.63;;
8632;SDS011;4354;49.832;10.746;2023-12-04T13:51:12;9.63;;;6.70;;
8632;SDS011;4354;49.832;10.746;2023-12-04T13:53:40;11.33;;;7.37;;
8632;SDS011;4354;49.832;10.746;2023-12-04T13:56:11;13.90;;;6.93;;
8632;SDS011;4354;49.832;10.746;2023-12-04T13:58:55;10.93;;;6.77;;
8632;SDS011;4354;49.832;10.746;2023-12-04T14:01:25;10.63;;;6.80;;
8632;SDS011;4354;49.832;10.746;2023-12-04T14:03:56;11.10;;;7.20;;
8632;SDS011;4354;49.832;10.746;2023-12-04T14:06:28;8.83;;;6.93;;
8632;SDS011;4354;49.832;10.746;2023-12-04T14:08:56;9.27;;;6.70;;
8632;SDS011;4354;49.832;10.746;2023-12-04T14:11:24;9.33;;;7.07;;
8632;SDS011;4354;49.832;10.746;2023-12-04T14:13:51;13.87;;;8.03;;
8632;SDS011;4354;49.832;10.746;2023-12-04T14:16:18;12.70;;;7.47;;
8632;SDS011;4354;49.832;10.746;2023-12-04T14:18:45;13.27;;;7.73;;
8632;SDS011;4354;49.832;10.746;2023-12-04T14:21:12;16.47;;;7.23;;
8632;SDS011;4354;49.832;10.746;2023-12-04T14:23:38;9.40;;;6.47;;
8632;SDS011;4354;49.832;10.746;2023-12-04T14:26:05;8.87;;;7.13;;
8632;SDS011;4354;49.832;10.746;2023-12-04T14:28:32;9.93;;;6.87;;
8632;SDS011;4354;49.832;10.746;2023-12-04T14:31:08;11.33;;;6.70;;
8632;SDS011;4354;49.832;10.746;2023-12-04T14:33:36;9.27;;;6.93;;
8632;SDS011;4354;49.832;10.746;2023-12-04T14:36:08;10.83;;;8.07;;
8632;SDS011;4354;49.832;10.746;2023-12-04T14:38:35;14.20;;;9.00;;
8632;SDS011;4354;49.832;10.746;2023-12-04T14:41:04;11.10;;;7.33;;
8632;SDS011;4354;49.832;10.746;2023-12-04T14:43:32;12.13;;;7.47;;
8632;SDS011;4354;49.832;10.746;2023-12-04T14:46:00;10.87;;;8.40;;
8632;SDS011;4354;49.832;10.746;2023-12-04T14:48:28;10.60;;;7.63;;